createdAt,value
2022-08-01T00:00:30.220Z,962.06
2022-08-01T00:01:30.201Z,962.02
2022-08-01T00:02:30.261Z,962.04
2022-08-01T00:03:30.159Z,962.00
2022-08-01T00:04:30.141Z,962.01
2022-08-01T00:05:30.120Z,961.97
2022-08-01T00:06:30.099Z,962.00
2022-08-01T00:07:30.077Z,961.98
2022-08-01T00:08:30.058Z,961.98
2022-08-01T00:09:30.037Z,961.98
2022-08-01T00:10:30.018Z,961.97
2022-08-01T00:11:29.998Z,961.98
2022-08-01T00:12:29.978Z,962.04
2022-08-01T00:13:29.957Z,962.02
2022-08-01T00:14:32.575Z,962.03
2022-08-01T00:15:29.918Z,962.02
2022-08-01T00:16:29.896Z,962.01
2022-08-01T00:17:29.877Z,962.01
2022-08-01T00:18:29.863Z,962.00
2022-08-01T00:19:29.834Z,962.03
2022-08-01T00:20:29.815Z,962.03
2022-08-01T00:21:29.794Z,962.05
2022-08-01T00:22:29.775Z,962.05
2022-08-01T00:23:29.755Z,962.07
2022-08-01T00:24:29.737Z,962.05
2022-08-01T00:25:34.200Z,962.08
2022-08-01T00:26:29.694Z,962.05
2022-08-01T00:27:29.671Z,962.05
2022-08-01T00:28:29.652Z,962.05
2022-08-01T00:30:01.017Z,962.05
2022-08-01T00:30:29.611Z,962.08
2022-08-01T00:31:29.590Z,962.08
2022-08-01T00:32:29.570Z,962.10
2022-08-01T00:33:29.549Z,962.04
2022-08-01T00:34:29.530Z,962.06
2022-08-01T00:35:29.508Z,962.06
2022-08-01T00:36:29.489Z,962.08
2022-08-01T00:37:29.467Z,962.09
2022-08-01T00:38:29.448Z,962.13
2022-08-01T00:39:29.433Z,962.14
2022-08-01T00:40:29.405Z,962.11
2022-08-01T00:41:29.385Z,962.08
2022-08-01T00:42:29.365Z,962.06
2022-08-01T00:43:29.342Z,962.04
2022-08-01T00:44:29.323Z,962.06
2022-08-01T00:45:29.305Z,962.11
2022-08-01T00:46:29.282Z,962.08
2022-08-01T00:47:29.261Z,962.11
2022-08-01T00:48:29.242Z,962.08
2022-08-01T00:49:29.397Z,962.10
2022-08-01T00:50:29.201Z,962.07
2022-08-01T00:51:29.178Z,962.08
2022-08-01T00:52:29.157Z,962.08
2022-08-01T00:53:29.138Z,962.07
2022-08-01T00:54:29.116Z,962.08
2022-08-01T00:55:29.095Z,962.09
2022-08-01T00:56:29.074Z,962.12
2022-08-01T00:58:04.949Z,962.11
2022-08-01T00:58:29.033Z,962.09
2022-08-01T00:59:29.013Z,962.07
2022-08-01T01:00:29.025Z,962.07
2022-08-01T01:01:39.144Z,962.10
2022-08-01T01:02:28.951Z,962.07
2022-08-01T01:03:56.261Z,962.09
2022-08-01T01:04:28.909Z,962.13
2022-08-01T01:05:28.892Z,962.09
2022-08-01T01:06:29.150Z,962.13
2022-08-01T01:07:28.848Z,962.12
2022-08-01T01:08:28.827Z,962.14
2022-08-01T01:09:28.808Z,962.10
2022-08-01T01:10:28.786Z,962.13
2022-08-01T01:11:28.767Z,962.11
2022-08-01T01:12:28.746Z,962.13
2022-08-01T01:13:28.728Z,962.14
2022-08-01T01:14:28.705Z,962.15
2022-08-01T01:15:28.685Z,962.16
2022-08-01T01:16:28.663Z,962.17
2022-08-01T01:17:40.711Z,962.17
2022-08-01T01:18:28.623Z,962.18
2022-08-01T01:19:28.604Z,962.16
2022-08-01T01:20:28.581Z,962.13
2022-08-01T01:21:28.562Z,962.12
2022-08-01T01:22:28.541Z,962.14
2022-08-01T01:23:28.521Z,962.09
2022-08-01T01:24:28.501Z,962.13
2022-08-01T01:25:28.482Z,962.11
2022-08-01T01:26:28.459Z,962.10
2022-08-01T01:27:28.439Z,962.10
2022-08-01T01:28:28.418Z,962.08
2022-08-01T01:29:28.401Z,962.12
2022-08-01T01:30:28.378Z,962.11
2022-08-01T01:31:28.356Z,962.07
2022-08-01T01:32:30.940Z,962.09
2022-08-01T01:33:28.317Z,962.08
2022-08-01T01:34:28.296Z,962.06
2022-08-01T01:35:28.281Z,962.06
2022-08-01T01:36:28.254Z,962.04
2022-08-01T01:37:28.239Z,962.04
2022-08-01T01:38:28.213Z,962.05
2022-08-01T01:39:28.193Z,962.07
2022-08-01T01:40:28.173Z,962.04
2022-08-01T01:41:28.153Z,962.07
2022-08-01T01:42:28.132Z,962.03
2022-08-01T01:43:29.073Z,962.04
2022-08-01T01:44:28.091Z,962.01
2022-08-01T01:45:28.071Z,962.05
2022-08-01T01:46:28.101Z,962.05
2022-08-01T01:47:28.030Z,962.03
2022-08-01T01:48:28.010Z,962.07
2022-08-01T01:49:28.145Z,962.03
2022-08-01T01:50:27.972Z,962.05
2022-08-01T01:51:27.949Z,962.06
2022-08-01T01:52:27.927Z,962.07
2022-08-01T01:53:27.910Z,962.10
2022-08-01T01:54:27.886Z,962.10
2022-08-01T01:55:27.866Z,962.07
2022-08-01T01:56:27.845Z,962.08
2022-08-01T01:57:27.825Z,962.07
2022-08-01T01:58:27.805Z,962.05
2022-08-01T01:59:27.784Z,962.09
2022-08-01T02:00:27.762Z,962.11
2022-08-01T02:01:38.865Z,962.11
2022-08-01T02:02:27.765Z,962.09
2022-08-01T02:03:27.702Z,962.11
2022-08-01T02:04:27.680Z,962.13
2022-08-01T02:05:27.660Z,962.11
2022-08-01T02:06:27.640Z,962.12
2022-08-01T02:07:27.619Z,962.15
2022-08-01T02:08:27.597Z,962.13
2022-08-01T02:09:27.581Z,962.10
2022-08-01T02:10:28.710Z,962.13
2022-08-01T02:11:27.544Z,962.13
2022-08-01T02:12:27.515Z,962.15
2022-08-01T02:13:27.495Z,962.12
2022-08-01T02:14:27.474Z,962.13
2022-08-01T02:15:27.454Z,962.11
2022-08-01T02:16:27.432Z,962.16
2022-08-01T02:17:27.412Z,962.16
2022-08-01T02:18:27.393Z,962.14
2022-08-01T02:19:27.374Z,962.14
2022-08-01T02:20:27.351Z,962.13
2022-08-01T02:21:27.330Z,962.13
2022-08-01T02:22:27.313Z,962.16
2022-08-01T02:23:27.289Z,962.12
2022-08-01T02:24:30.275Z,962.12
2022-08-01T02:25:27.247Z,962.13
2022-08-01T02:26:27.226Z,962.13
2022-08-01T02:27:27.206Z,962.13
2022-08-01T02:28:27.183Z,962.17
2022-08-01T02:29:27.164Z,962.17
2022-08-01T02:30:27.142Z,962.18
2022-08-01T02:31:27.121Z,962.19
2022-08-01T02:32:27.100Z,962.22
2022-08-01T02:33:27.081Z,962.22
2022-08-01T02:34:27.060Z,962.18
2022-08-01T02:35:27.038Z,962.20
2022-08-01T02:36:32.259Z,962.19
2022-08-01T02:37:26.997Z,962.24
2022-08-01T02:38:26.976Z,962.24
2022-08-01T02:39:26.955Z,962.26
2022-08-01T02:40:26.934Z,962.23
2022-08-01T02:41:26.914Z,962.24
2022-08-01T02:42:26.892Z,962.21
2022-08-01T02:43:26.873Z,962.23
2022-08-01T02:44:26.852Z,962.23
2022-08-01T02:45:26.830Z,962.28
2022-08-01T02:46:26.808Z,962.27
2022-08-01T02:47:26.788Z,962.25
2022-08-01T02:48:26.768Z,962.23
2022-08-01T02:49:26.813Z,962.25
2022-08-01T02:50:26.725Z,962.23
2022-08-01T02:51:26.704Z,962.25
2022-08-01T02:52:26.685Z,962.24
2022-08-01T02:53:41.646Z,962.22
2022-08-01T02:54:26.640Z,962.23
2022-08-01T02:55:26.637Z,962.26
2022-08-01T02:56:26.598Z,962.25
2022-08-01T02:57:32.815Z,962.24
2022-08-01T02:58:29.264Z,962.23
2022-08-01T02:59:26.536Z,962.25
2022-08-01T03:00:26.515Z,962.22
2022-08-01T03:01:27.121Z,962.24
2022-08-01T03:02:26.473Z,962.24
2022-08-01T03:03:26.451Z,962.24
2022-08-01T03:04:26.430Z,962.19
2022-08-01T03:05:26.410Z,962.20
2022-08-01T03:06:26.388Z,962.19
2022-08-01T03:07:34.544Z,962.19
2022-08-01T03:08:26.345Z,962.19
2022-08-01T03:09:26.325Z,962.17
2022-08-01T03:10:26.303Z,962.20
2022-08-01T03:11:26.282Z,962.23
2022-08-01T03:12:26.261Z,962.17
2022-08-01T03:13:26.241Z,962.16
2022-08-01T03:14:26.220Z,962.20
2022-08-01T03:15:26.198Z,962.15
2022-08-01T03:16:26.176Z,962.19
2022-08-01T03:17:26.157Z,962.15
2022-08-01T03:18:26.134Z,962.12
2022-08-01T03:19:26.118Z,962.18
2022-08-01T03:20:26.092Z,962.16
2022-08-01T03:21:26.076Z,962.17
2022-08-01T03:22:26.050Z,962.14
2022-08-01T03:23:37.731Z,962.13
2022-08-01T03:24:26.008Z,962.13
2022-08-01T03:25:25.987Z,962.14
2022-08-01T03:26:25.965Z,962.15
2022-08-01T03:27:25.945Z,962.16
2022-08-01T03:28:29.679Z,962.16
2022-08-01T03:29:25.902Z,962.18
2022-08-01T03:30:25.880Z,962.18
2022-08-01T03:31:25.861Z,962.18
2022-08-01T03:32:25.837Z,962.18
2022-08-01T03:33:25.818Z,962.21
2022-08-01T03:34:25.795Z,962.17
2022-08-01T03:35:25.781Z,962.19
2022-08-01T03:36:25.752Z,962.18
2022-08-01T03:37:25.732Z,962.19
2022-08-01T03:38:25.710Z,962.20
2022-08-01T03:39:25.689Z,962.19
2022-08-01T03:40:25.667Z,962.19
2022-08-01T03:41:25.647Z,962.21
2022-08-01T03:42:25.626Z,962.20
2022-08-01T03:43:25.607Z,962.18
2022-08-01T03:44:25.582Z,962.25
2022-08-01T03:45:25.563Z,962.19
2022-08-01T03:46:25.540Z,962.22
2022-08-01T03:47:25.518Z,962.25
2022-08-01T03:48:25.496Z,962.24
2022-08-01T03:49:25.552Z,962.26
2022-08-01T03:50:25.454Z,962.27
2022-08-01T03:51:25.433Z,962.26
2022-08-01T03:52:25.410Z,962.23
2022-08-01T03:53:25.392Z,962.23
2022-08-01T03:54:25.370Z,962.20
2022-08-01T03:55:25.347Z,962.23
2022-08-01T03:56:25.324Z,962.22
2022-08-01T03:57:36.767Z,962.20
2022-08-01T03:58:25.283Z,962.22
2022-08-01T03:59:25.261Z,962.18
2022-08-01T04:00:25.242Z,962.20
2022-08-01T04:01:25.295Z,962.20
2022-08-01T04:02:25.196Z,962.20
2022-08-01T04:03:25.175Z,962.20
2022-08-01T04:04:25.155Z,962.21
2022-08-01T04:05:25.139Z,962.23
2022-08-01T04:06:25.110Z,962.25
2022-08-01T04:07:25.088Z,962.26
2022-08-01T04:08:29.360Z,962.23
2022-08-01T04:09:25.046Z,962.26
2022-08-01T04:10:25.022Z,962.26
2022-08-01T04:11:25.002Z,962.27
2022-08-01T04:12:24.984Z,962.23
2022-08-01T04:13:24.958Z,962.23
2022-08-01T04:14:24.939Z,962.25
2022-08-01T04:15:24.914Z,962.28
2022-08-01T04:16:24.896Z,962.24
2022-08-01T04:17:24.872Z,962.25
2022-08-01T04:18:24.850Z,962.22
2022-08-01T04:19:24.827Z,962.25
2022-08-01T04:20:24.877Z,962.25
2022-08-01T04:21:24.784Z,962.28
2022-08-01T04:22:24.762Z,962.30
2022-08-01T04:23:24.743Z,962.33
2022-08-01T04:24:24.718Z,962.35
2022-08-01T04:25:24.698Z,962.34
2022-08-01T04:26:24.675Z,962.35
2022-08-01T04:27:50.307Z,962.33
2022-08-01T04:28:24.632Z,962.32
2022-08-01T04:29:24.610Z,962.32
2022-08-01T04:30:24.587Z,962.31
2022-08-01T04:31:24.576Z,962.32
2022-08-01T04:32:24.546Z,962.37
2022-08-01T04:33:24.527Z,962.34
2022-08-01T04:34:24.500Z,962.36
2022-08-01T04:36:01.631Z,962.37
2022-08-01T04:36:24.455Z,962.38
2022-08-01T04:37:24.437Z,962.39
2022-08-01T04:38:24.538Z,962.43
2022-08-01T04:39:24.392Z,962.44
2022-08-01T04:40:24.369Z,962.43
2022-08-01T04:41:24.350Z,962.47
2022-08-01T04:42:26.061Z,962.47
2022-08-01T04:43:24.306Z,962.48
2022-08-01T04:44:24.282Z,962.51
2022-08-01T04:45:24.262Z,962.55
2022-08-01T04:46:24.240Z,962.52
2022-08-01T04:47:24.220Z,962.54
2022-08-01T04:48:24.196Z,962.53
2022-08-01T04:49:24.229Z,962.55
2022-08-01T04:50:24.154Z,962.57
2022-08-01T04:51:24.131Z,962.57
2022-08-01T04:52:24.992Z,962.59
2022-08-01T04:53:24.088Z,962.61
2022-08-01T04:54:24.066Z,962.56
2022-08-01T04:55:24.045Z,962.59
2022-08-01T04:56:24.023Z,962.57
2022-08-01T04:57:24.002Z,962.60
2022-08-01T04:58:23.980Z,962.58
2022-08-01T04:59:23.962Z,962.56
2022-08-01T05:00:23.936Z,962.56
2022-08-01T05:01:23.979Z,962.56
2022-08-01T05:02:23.893Z,962.56
2022-08-01T05:03:23.872Z,962.56
2022-08-01T05:04:23.850Z,962.57
2022-08-01T05:05:23.830Z,962.62
2022-08-01T05:06:23.807Z,962.62
2022-08-01T05:07:23.787Z,962.61
2022-08-01T05:08:23.765Z,962.64
2022-08-01T05:09:26.151Z,962.61
2022-08-01T05:10:23.723Z,962.60
2022-08-01T05:11:23.700Z,962.60
2022-08-01T05:12:23.680Z,962.62
2022-08-01T05:13:23.667Z,962.61
2022-08-01T05:14:23.637Z,962.63
2022-08-01T05:15:23.614Z,962.65
2022-08-01T05:16:23.595Z,962.62
2022-08-01T05:17:23.575Z,962.62
2022-08-01T05:18:26.213Z,962.60
2022-08-01T05:19:23.529Z,962.62
2022-08-01T05:20:23.509Z,962.62
2022-08-01T05:21:23.491Z,962.59
2022-08-01T05:22:23.467Z,962.60
2022-08-01T05:23:31.569Z,962.62
2022-08-01T05:24:23.425Z,962.61
2022-08-01T05:25:57.016Z,962.60
2022-08-01T05:26:23.384Z,962.61
2022-08-01T05:27:23.360Z,962.63
2022-08-01T05:28:23.341Z,962.61
2022-08-01T05:29:23.319Z,962.63
2022-08-01T05:30:23.298Z,962.58
2022-08-01T05:31:23.276Z,962.58
2022-08-01T05:32:23.257Z,962.59
2022-08-01T05:33:23.233Z,962.59
2022-08-01T05:34:23.213Z,962.58
2022-08-01T05:35:23.191Z,962.63
2022-08-01T05:36:23.171Z,962.64
2022-08-01T05:37:23.149Z,962.62
2022-08-01T05:38:23.128Z,962.62
2022-08-01T05:39:23.106Z,962.62
2022-08-01T05:40:23.086Z,962.61
2022-08-01T05:41:23.064Z,962.62
2022-08-01T05:42:23.044Z,962.68
2022-08-01T05:43:28.208Z,962.68
2022-08-01T05:44:23.001Z,962.72
2022-08-01T05:45:22.980Z,962.68
2022-08-01T05:46:22.960Z,962.72
2022-08-01T05:47:22.940Z,962.74
2022-08-01T05:48:22.916Z,962.73
2022-08-01T05:49:22.981Z,962.73
2022-08-01T05:50:22.878Z,962.76
2022-08-01T05:51:22.853Z,962.78
2022-08-01T05:52:22.833Z,962.74
2022-08-01T05:53:22.812Z,962.75
2022-08-01T05:54:22.793Z,962.73
2022-08-01T05:55:22.770Z,962.75
2022-08-01T05:56:22.749Z,962.71
2022-08-01T05:57:22.764Z,962.74
2022-08-01T05:58:22.708Z,962.69
2022-08-01T05:59:22.685Z,962.69
2022-08-01T06:00:22.669Z,962.69
2022-08-01T06:01:22.644Z,962.70
2022-08-01T06:02:22.698Z,962.71
2022-08-01T06:03:22.601Z,962.70
2022-08-01T06:04:22.582Z,962.70
2022-08-01T06:05:22.561Z,962.72
2022-08-01T06:06:25.565Z,962.68
2022-08-01T06:07:22.519Z,962.70
2022-08-01T06:08:22.499Z,962.70
2022-08-01T06:09:22.481Z,962.71
2022-08-01T06:10:22.458Z,962.72
2022-08-01T06:11:22.442Z,962.75
2022-08-01T06:12:22.416Z,962.76
2022-08-01T06:13:22.395Z,962.74
2022-08-01T06:14:22.379Z,962.76
2022-08-01T06:15:22.355Z,962.73
2022-08-01T06:16:22.334Z,962.73
2022-08-01T06:17:22.316Z,962.72
2022-08-01T06:18:22.294Z,962.74
2022-08-01T06:19:22.271Z,962.75
2022-08-01T06:20:22.253Z,962.72
2022-08-01T06:21:22.231Z,962.74
2022-08-01T06:22:22.211Z,962.74
2022-08-01T06:23:31.985Z,962.73
2022-08-01T06:24:22.170Z,962.73
2022-08-01T06:25:22.148Z,962.72
2022-08-01T06:26:22.131Z,962.73
2022-08-01T06:27:22.766Z,962.77
2022-08-01T06:28:22.090Z,962.76
2022-08-01T06:29:22.066Z,962.80
2022-08-01T06:30:22.047Z,962.74
2022-08-01T06:31:22.025Z,962.76
2022-08-01T06:32:26.530Z,962.76
2022-08-01T06:33:21.985Z,962.77
2022-08-01T06:34:21.969Z,962.73
2022-08-01T06:35:21.943Z,962.75
2022-08-01T06:36:21.926Z,962.71
2022-08-01T06:37:21.904Z,962.71
2022-08-01T06:38:21.884Z,962.72
2022-08-01T06:39:21.863Z,962.75
2022-08-01T06:40:21.849Z,962.77
2022-08-01T06:41:21.823Z,962.75
2022-08-01T06:42:21.803Z,962.74
2022-08-01T06:43:21.782Z,962.77
2022-08-01T06:44:21.763Z,962.77
2022-08-01T06:45:21.742Z,962.75
2022-08-01T06:46:21.724Z,962.77
2022-08-01T06:47:21.701Z,962.77
2022-08-01T06:48:21.683Z,962.78
2022-08-01T06:49:21.796Z,962.79
2022-08-01T06:50:21.643Z,962.76
2022-08-01T06:51:21.620Z,962.76
2022-08-01T06:52:21.602Z,962.76
2022-08-01T06:53:21.581Z,962.75
2022-08-01T06:54:21.562Z,962.76
2022-08-01T06:55:21.540Z,962.77
2022-08-01T06:56:21.522Z,962.73
2022-08-01T06:57:21.501Z,962.76
2022-08-01T06:58:21.482Z,962.77
2022-08-01T06:59:21.461Z,962.75
2022-08-01T07:00:21.446Z,962.76
2022-08-01T07:01:21.574Z,962.73
2022-08-01T07:02:21.403Z,962.74
2022-08-01T07:03:21.382Z,962.73
2022-08-01T07:04:21.363Z,962.74
2022-08-01T07:05:21.343Z,962.78
2022-08-01T07:06:21.326Z,962.73
2022-08-01T07:07:21.303Z,962.70
2022-08-01T07:08:21.285Z,962.70
2022-08-01T07:09:21.265Z,962.73
2022-08-01T07:10:21.262Z,962.72
2022-08-01T07:11:21.225Z,962.68
2022-08-01T07:12:21.206Z,962.70
2022-08-01T07:13:21.185Z,962.74
2022-08-01T07:14:21.168Z,962.74
2022-08-01T07:15:21.146Z,962.74
2022-08-01T07:16:21.127Z,962.72
2022-08-01T07:17:21.109Z,962.73
2022-08-01T07:18:21.091Z,962.67
2022-08-01T07:19:21.069Z,962.67
2022-08-01T07:20:21.050Z,962.66
2022-08-01T07:21:38.911Z,962.62
2022-08-01T07:22:23.587Z,962.65
2022-08-01T07:23:22.764Z,962.61
2022-08-01T07:24:21.111Z,962.60
2022-08-01T07:25:20.953Z,962.59
2022-08-01T07:26:20.933Z,962.62
2022-08-01T07:27:25.821Z,962.61
2022-08-01T07:28:20.895Z,962.63
2022-08-01T07:29:20.875Z,962.63
2022-08-01T07:30:20.857Z,962.60
2022-08-01T07:31:20.837Z,962.59
2022-08-01T07:32:20.817Z,962.56
2022-08-01T07:33:20.799Z,962.54
2022-08-01T07:34:20.793Z,962.55
2022-08-01T07:35:20.759Z,962.56
2022-08-01T07:36:20.740Z,962.58
2022-08-01T07:37:45.571Z,962.56
2022-08-01T07:38:20.702Z,962.57
2022-08-01T07:39:20.684Z,962.56
2022-08-01T07:40:20.662Z,962.59
2022-08-01T07:41:20.642Z,962.53
2022-08-01T07:42:20.624Z,962.55
2022-08-01T07:43:20.604Z,962.53
2022-08-01T07:44:20.587Z,962.53
2022-08-01T07:45:20.566Z,962.51
2022-08-01T07:46:20.549Z,962.52
2022-08-01T07:47:20.526Z,962.53
2022-08-01T07:48:20.509Z,962.51
2022-08-01T07:49:20.549Z,962.50
2022-08-01T07:50:20.470Z,962.51
2022-08-01T07:51:20.450Z,962.51
2022-08-01T07:52:20.789Z,962.47
2022-08-01T07:53:20.412Z,962.49
2022-08-01T07:54:20.395Z,962.46
2022-08-01T07:55:20.373Z,962.48
2022-08-01T07:56:20.356Z,962.47
2022-08-01T07:57:20.335Z,962.48
2022-08-01T07:58:20.317Z,962.46
2022-08-01T07:59:26.098Z,962.44
2022-08-01T08:00:20.278Z,962.43
2022-08-01T08:01:20.334Z,962.42
2022-08-01T08:02:20.324Z,962.43
2022-08-01T08:03:20.220Z,962.40
2022-08-01T08:04:20.202Z,962.41
2022-08-01T08:05:58.580Z,962.41
2022-08-01T08:06:20.164Z,962.39
2022-08-01T08:07:20.144Z,962.37
2022-08-01T08:08:20.126Z,962.36
2022-08-01T08:09:20.106Z,962.32
2022-08-01T08:10:20.089Z,962.33
2022-08-01T08:11:20.068Z,962.34
2022-08-01T08:12:28.854Z,962.35
2022-08-01T08:13:20.030Z,962.35
2022-08-01T08:14:20.015Z,962.37
2022-08-01T08:15:19.992Z,962.33
2022-08-01T08:16:19.974Z,962.32
2022-08-01T08:17:19.954Z,962.30
2022-08-01T08:18:19.938Z,962.32
2022-08-01T08:19:19.916Z,962.30
2022-08-01T08:20:19.902Z,962.29
2022-08-01T08:21:19.880Z,962.28
2022-08-01T08:22:19.864Z,962.27
2022-08-01T08:23:41.503Z,962.26
2022-08-01T08:24:19.825Z,962.28
2022-08-01T08:25:19.805Z,962.28
2022-08-01T08:26:19.787Z,962.30
2022-08-01T08:27:19.766Z,962.26
2022-08-01T08:28:19.749Z,962.28
2022-08-01T08:29:19.729Z,962.27
2022-08-01T08:30:19.711Z,962.27
2022-08-01T08:31:25.367Z,962.24
2022-08-01T08:32:19.674Z,962.30
2022-08-01T08:33:19.660Z,962.23
2022-08-01T08:34:19.656Z,962.26
2022-08-01T08:35:23.174Z,962.25
2022-08-01T08:36:19.603Z,962.25
2022-08-01T08:37:19.581Z,962.23
2022-08-01T08:38:19.562Z,962.23
2022-08-01T08:39:20.070Z,962.23
2022-08-01T08:40:19.524Z,962.22
2022-08-01T08:41:21.447Z,962.22
2022-08-01T08:42:19.489Z,962.21
2022-08-01T08:43:19.468Z,962.17
2022-08-01T08:44:19.451Z,962.18
2022-08-01T08:45:19.430Z,962.15
2022-08-01T08:46:19.412Z,962.22
2022-08-01T08:47:20.797Z,962.15
2022-08-01T08:48:19.375Z,962.18
2022-08-01T08:49:19.438Z,962.15
2022-08-01T08:50:19.342Z,962.13
2022-08-01T08:51:19.318Z,962.18
2022-08-01T08:52:19.301Z,962.14
2022-08-01T08:53:19.283Z,962.15
2022-08-01T08:54:19.265Z,962.15
2022-08-01T08:55:19.846Z,962.17
2022-08-01T08:56:19.227Z,962.15
2022-08-01T08:57:19.208Z,962.17
2022-08-01T08:58:19.191Z,962.17
2022-08-01T08:59:19.170Z,962.19
2022-08-01T09:00:19.152Z,962.18
2022-08-01T09:01:19.135Z,962.18
2022-08-01T09:02:19.116Z,962.18
2022-08-01T09:03:19.179Z,962.23
2022-08-01T09:04:19.077Z,962.20
2022-08-01T09:05:19.829Z,962.21
2022-08-01T09:06:19.043Z,962.21
2022-08-01T09:07:19.021Z,962.19
2022-08-01T09:08:19.004Z,962.22
2022-08-01T09:09:18.985Z,962.23
2022-08-01T09:10:18.967Z,962.23
2022-08-01T09:11:22.892Z,962.22
2022-08-01T09:12:18.930Z,962.23
2022-08-01T09:13:18.911Z,962.20
2022-08-01T09:14:18.894Z,962.23
2022-08-01T09:15:18.873Z,962.21
2022-08-01T09:16:18.857Z,962.24
2022-08-01T09:17:18.839Z,962.19
2022-08-01T09:18:18.821Z,962.18
2022-08-01T09:19:39.774Z,962.19
2022-08-01T09:20:18.785Z,962.19
2022-08-01T09:21:18.778Z,962.19
2022-08-01T09:22:18.749Z,962.22
2022-08-01T09:23:18.728Z,962.22
2022-08-01T09:24:18.709Z,962.22
2022-08-01T09:25:18.698Z,962.22
2022-08-01T09:26:18.673Z,962.21
2022-08-01T09:27:19.715Z,962.21
2022-08-01T09:28:18.653Z,962.14
2022-08-01T09:29:37.349Z,962.15
2022-08-01T09:30:23.527Z,962.17
2022-08-01T09:31:18.583Z,962.15
2022-08-01T09:32:18.564Z,962.16
2022-08-01T09:33:21.549Z,962.11
2022-08-01T09:34:19.902Z,962.09
2022-08-01T09:35:18.511Z,962.13
2022-08-01T09:36:18.491Z,962.13
2022-08-01T09:37:18.474Z,962.13
2022-08-01T09:38:18.463Z,962.11
2022-08-01T09:39:18.438Z,962.13
2022-08-01T09:40:18.488Z,962.11
2022-08-01T09:41:18.402Z,962.13
2022-08-01T09:42:18.384Z,962.14
2022-08-01T09:43:18.367Z,962.15
2022-08-01T09:44:18.346Z,962.19
2022-08-01T09:45:19.012Z,962.19
2022-08-01T09:46:18.310Z,962.14
2022-08-01T09:47:18.295Z,962.15
2022-08-01T09:48:18.274Z,962.17
2022-08-01T09:49:18.315Z,962.15
2022-08-01T09:50:18.312Z,962.12
2022-08-01T09:51:58.393Z,962.12
2022-08-01T09:52:18.201Z,962.12
2022-08-01T09:53:24.367Z,962.10
2022-08-01T09:54:18.166Z,962.15
2022-08-01T09:55:18.149Z,962.08
2022-08-01T09:56:18.133Z,962.02
2022-08-01T09:57:18.113Z,962.02
2022-08-01T09:58:18.094Z,962.01
2022-08-01T09:59:18.077Z,962.04
2022-08-01T10:00:24.402Z,962.04
2022-08-01T10:01:18.041Z,962.09
2022-08-01T10:02:18.023Z,962.02
2022-08-01T10:03:18.061Z,962.02
2022-08-01T10:04:19.127Z,961.98
2022-08-01T10:05:21.129Z,962.01
2022-08-01T10:06:17.952Z,961.97
2022-08-01T10:07:17.936Z,961.98
2022-08-01T10:08:22.967Z,961.92
2022-08-01T10:09:17.900Z,961.93
2022-08-01T10:10:17.932Z,961.90
2022-08-01T10:11:17.863Z,961.93
2022-08-01T10:12:17.865Z,961.89
2022-08-01T10:13:17.829Z,961.89
2022-08-01T10:14:18.550Z,961.91
2022-08-01T10:15:18.239Z,961.87
2022-08-01T10:16:17.774Z,961.84
2022-08-01T10:17:18.331Z,961.84
2022-08-01T10:18:26.497Z,961.84
2022-08-01T10:19:17.722Z,961.84
2022-08-01T10:20:29.032Z,961.85
2022-08-01T10:21:17.689Z,961.86
2022-08-01T10:22:17.793Z,961.81
2022-08-01T10:23:17.655Z,961.76
2022-08-01T10:24:18.838Z,961.78
2022-08-01T10:25:17.619Z,961.78
2022-08-01T10:26:17.602Z,961.76
2022-08-01T10:27:24.373Z,961.74
2022-08-01T10:28:18.222Z,961.74
2022-08-01T10:29:45.000Z,961.76
2022-08-01T10:30:23.441Z,961.73
2022-08-01T10:31:17.515Z,961.69
2022-08-01T10:32:17.499Z,961.68
2022-08-01T10:33:51.061Z,961.73
2022-08-01T10:34:17.464Z,961.71
2022-08-01T10:35:17.446Z,961.70
2022-08-01T10:36:17.427Z,961.71
2022-08-01T10:37:17.410Z,961.67
2022-08-01T10:38:17.393Z,961.64
2022-08-01T10:39:20.310Z,961.64
2022-08-01T10:40:29.825Z,961.63
2022-08-01T10:41:17.345Z,961.60
2022-08-01T10:42:17.328Z,961.62
2022-08-01T10:43:21.923Z,961.58
2022-08-01T10:44:17.296Z,961.59
2022-08-01T10:45:17.274Z,961.56
2022-08-01T10:46:17.552Z,961.58
2022-08-01T10:47:22.773Z,961.53
2022-08-01T10:48:20.826Z,961.59
2022-08-01T10:49:17.300Z,961.55
2022-08-01T10:50:22.003Z,961.53
2022-08-01T10:51:18.234Z,961.52
2022-08-01T10:52:17.152Z,961.53
2022-08-01T10:53:23.865Z,961.55
2022-08-01T10:54:17.118Z,961.46
2022-08-01T10:55:17.102Z,961.53
2022-08-01T10:56:17.083Z,961.55
2022-08-01T10:57:17.068Z,961.53
2022-08-01T10:58:17.050Z,961.55
2022-08-01T10:59:17.032Z,961.55
2022-08-01T11:00:17.015Z,961.48
2022-08-01T11:01:17.073Z,961.49
2022-08-01T11:02:17.000Z,961.46
2022-08-01T11:03:16.965Z,961.42
2022-08-01T11:04:18.084Z,961.48
2022-08-01T11:05:16.931Z,961.47
2022-08-01T11:06:16.913Z,961.48
2022-08-01T11:07:16.898Z,961.48
2022-08-01T11:08:16.882Z,961.43
2022-08-01T11:09:16.937Z,961.42
2022-08-01T11:10:16.845Z,961.42
2022-08-01T11:11:16.827Z,961.42
2022-08-01T11:12:23.276Z,961.46
2022-08-01T11:13:16.795Z,961.42
2022-08-01T11:14:18.372Z,961.41
2022-08-01T11:15:16.759Z,961.39
2022-08-01T11:16:18.597Z,961.44
2022-08-01T11:17:16.727Z,961.41
2022-08-01T11:18:16.709Z,961.39
2022-08-01T11:19:16.726Z,961.43
2022-08-01T11:20:16.676Z,961.36
2022-08-01T11:21:59.511Z,961.32
2022-08-01T11:22:16.643Z,961.31
2022-08-01T11:23:16.626Z,961.38
2022-08-01T11:24:16.608Z,961.37
2022-08-01T11:25:16.592Z,961.28
2022-08-01T11:26:17.661Z,961.30
2022-08-01T11:27:16.560Z,961.39
2022-08-01T11:28:25.044Z,961.35
2022-08-01T11:29:21.076Z,961.29
2022-08-01T11:30:16.509Z,961.28
2022-08-01T11:31:16.493Z,961.27
2022-08-01T11:32:16.473Z,961.25
2022-08-01T11:33:16.458Z,961.25
2022-08-01T11:34:16.441Z,961.24
2022-08-01T11:35:16.903Z,961.26
2022-08-01T11:36:16.407Z,961.27
2022-08-01T11:37:16.393Z,961.31
2022-08-01T11:38:16.387Z,961.28
2022-08-01T11:39:16.357Z,961.21
2022-08-01T11:40:16.339Z,961.19
2022-08-01T11:41:16.324Z,961.24
2022-08-01T11:42:16.307Z,961.18
2022-08-01T11:43:16.290Z,961.23
2022-08-01T11:44:16.274Z,961.25
2022-08-01T11:45:18.556Z,961.26
2022-08-01T11:46:16.239Z,961.17
2022-08-01T11:47:16.223Z,961.18
2022-08-01T11:48:16.206Z,961.13
2022-08-01T11:49:16.255Z,961.13
2022-08-01T11:50:16.173Z,961.20
2022-08-01T11:51:21.642Z,961.16
2022-08-01T11:52:16.847Z,961.17
2022-08-01T11:53:16.124Z,961.15
2022-08-01T11:54:16.106Z,961.09
2022-08-01T11:55:16.741Z,961.03
2022-08-01T11:56:16.072Z,961.07
2022-08-01T11:57:16.058Z,961.03
2022-08-01T11:58:22.306Z,961.06
2022-08-01T11:59:16.023Z,961.06
2022-08-01T12:00:17.404Z,961.05
2022-08-01T12:01:15.993Z,961.06
2022-08-01T12:02:16.022Z,961.03
2022-08-01T12:03:20.673Z,961.03
2022-08-01T12:04:16.902Z,961.01
2022-08-01T12:05:16.124Z,960.95
2022-08-01T12:06:15.909Z,960.96
2022-08-01T12:07:15.892Z,960.91
2022-08-01T12:08:15.875Z,960.94
2022-08-01T12:09:15.860Z,960.95
2022-08-01T12:10:16.252Z,960.95
2022-08-01T12:11:15.828Z,960.90
2022-08-01T12:12:15.813Z,960.84
2022-08-01T12:13:15.794Z,960.86
2022-08-01T12:14:15.778Z,960.88
2022-08-01T12:15:15.760Z,960.87
2022-08-01T12:16:15.744Z,960.88
2022-08-01T12:17:15.729Z,960.86
2022-08-01T12:18:15.712Z,960.87
2022-08-01T12:19:15.696Z,960.82
2022-08-01T12:20:15.679Z,960.82
2022-08-01T12:21:15.664Z,960.79
2022-08-01T12:22:15.651Z,960.72
2022-08-01T12:23:15.633Z,960.74
2022-08-01T12:24:15.614Z,960.69
2022-08-01T12:25:15.600Z,960.74
2022-08-01T12:26:31.582Z,960.72
2022-08-01T12:27:15.567Z,960.68
2022-08-01T12:28:15.551Z,960.66